Kezdőlap
METAR-TAF:

METAR-TAF

Repülőterek :

Hwange National Park, Zimbabwe

földrajzi szélesség: 18-38S, földrajzi hosszúság: 027-00E, magasság: 1079 m

Jelenlegi meteorológiai megfigyelések

A jelentés 9 órával és 12 perccel ezelõtt készült, 15:00 UTC
Észak-északkeleti szél 8 kt
Hőmérséklet 22°C
Páratartalom 38%
Légköri nyomás 1021 hPa
Látótávolság 10 km, vagy több
felhőtlen 1500 m magasságban, és nincs gomolyfelhõ

METAR: FVWN 171500Z 02008KT CAVOK 22/07 Q1021 NOSIG

Idő: 02:12 (00:12 UTC)


TAF: hiányzik

Meteorológiai megfigyelések és előrejelzések több, mint 4000 repülőtéren (METAR és TAF jelentéseket).

A térképen piros és sárga pontok jelzik az elérhető meteorológiai állomásokat.

Mozgassa az egeret a pont fölött, hogy megjelenjen az állomás neve.

Azután kattintson az időjárási megfigyelések és előrejelzések megtekintéséhez.

A térkép megváltoztatása: kattintson a fekete keresztel jelölt zöld gombra ráközelítéshez, a vonallal jelölt zöld gombra távolításhoz, vagy a zöld nyilakra a szomszédos térképek eléréséhez.


METAR-TAF: